createdAt,value
2023-03-11T00:00:25.683Z,84472.00
2023-03-11T00:02:59.925Z,84457.03
2023-03-11T00:05:33.222Z,84447.59
2023-03-11T00:08:01.464Z,84397.06
2023-03-11T00:10:35.470Z,84445.63
2023-03-11T00:13:04.115Z,84424.75
2023-03-11T00:15:31.647Z,84427.28
2023-03-11T00:17:59.007Z,84380.09
2023-03-11T00:20:35.169Z,84431.25
2023-03-11T00:23:02.951Z,84381.78
2023-03-11T00:25:31.734Z,84339.94
2023-03-11T00:27:59.004Z,84400.28
2023-03-11T00:30:28.939Z,84378.75
2023-03-11T00:32:58.218Z,84292.59
2023-03-11T00:35:28.103Z,84359.19
2023-03-11T00:37:58.171Z,84364.44
2023-03-11T00:40:27.039Z,84360.78
2023-03-11T00:42:54.096Z,84357.13
2023-03-11T00:45:21.358Z,84359.25
2023-03-11T00:47:48.507Z,84339.53
2023-03-11T00:50:23.154Z,84354.22
2023-03-11T00:52:51.529Z,84321.13
2023-03-11T00:55:22.300Z,84345.47
2023-03-11T00:57:53.733Z,84310.69
2023-03-11T01:00:23.949Z,84316.41
2023-03-11T01:02:56.142Z,84299.75
2023-03-11T01:05:27.922Z,84313.16
2023-03-11T01:07:55.758Z,84318.53
2023-03-11T01:10:22.906Z,84303.63
2023-03-11T01:12:50.858Z,84265.56
2023-03-11T01:15:29.872Z,84314.16
2023-03-11T01:17:59.291Z,84242.09
2023-03-11T01:20:26.348Z,84269.00
2023-03-11T01:22:53.622Z,84148.91
2023-03-11T01:25:24.185Z,84310.53
2023-03-11T01:27:51.497Z,84296.97
2023-03-11T01:30:21.799Z,84285.16
2023-03-11T01:32:49.621Z,84259.88
2023-03-11T01:35:18.356Z,84294.00
2023-03-11T01:37:47.389Z,84277.53
2023-03-11T01:40:19.436Z,84272.09
2023-03-11T01:42:46.911Z,84234.06
2023-03-11T01:45:29.421Z,84248.94
2023-03-11T01:47:56.913Z,84250.63
2023-03-11T01:50:27.517Z,84261.47
2023-03-11T01:52:54.710Z,84246.22
2023-03-11T01:55:21.915Z,84266.88
2023-03-11T01:57:50.237Z,84265.91
2023-03-11T02:00:17.787Z,84225.28
2023-03-11T02:02:53.050Z,84217.94
2023-03-11T02:05:22.930Z,84209.09
2023-03-11T02:07:52.837Z,84249.59
2023-03-11T02:10:21.438Z,84240.00
2023-03-11T02:12:50.886Z,84241.69
2023-03-11T02:15:26.419Z,84202.75
2023-03-11T02:18:02.166Z,84244.88
2023-03-11T02:20:54.203Z,84253.63
2023-03-11T02:23:29.039Z,84259.75
2023-03-11T02:26:08.347Z,84272.13
2023-03-11T02:28:37.929Z,84269.38
2023-03-11T02:31:05.425Z,84260.19
2023-03-11T02:33:35.242Z,84273.31
2023-03-11T02:36:02.734Z,84273.69
2023-03-11T02:38:29.831Z,84263.31
2023-03-11T02:40:59.759Z,84275.38
2023-03-11T02:43:41.034Z,84287.63
2023-03-11T02:46:11.916Z,84262.66
2023-03-11T02:48:39.427Z,84287.88
2023-03-11T02:51:07.332Z,84282.50
2023-03-11T02:53:45.446Z,84299.69
2023-03-11T02:56:13.494Z,84318.84
2023-03-11T02:58:40.643Z,84296.94
2023-03-11T03:01:10.823Z,84328.25
2023-03-11T03:03:39.134Z,84291.69
2023-03-11T03:06:07.322Z,84297.03
2023-03-11T03:08:34.294Z,84322.03
2023-03-11T03:11:01.388Z,84284.72
2023-03-11T03:13:28.425Z,84267.94
2023-03-11T03:15:57.108Z,84271.94
2023-03-11T03:18:24.227Z,84303.88
2023-03-11T03:20:52.934Z,84257.97
2023-03-11T03:23:20.787Z,84276.19
2023-03-11T03:25:48.063Z,84253.34
2023-03-11T03:28:15.475Z,84277.84
2023-03-11T03:30:45.310Z,84228.19
2023-03-11T03:33:16.001Z,84253.63
2023-03-11T03:35:45.228Z,84198.31
2023-03-11T03:38:20.334Z,84209.63
2023-03-11T03:40:49.178Z,84198.75
2023-03-11T03:43:19.571Z,84202.06
2023-03-11T03:45:59.280Z,84218.59
2023-03-11T03:48:30.139Z,84181.81
2023-03-11T03:50:57.671Z,84144.53
2023-03-11T03:53:24.764Z,84190.47
2023-03-11T03:55:54.717Z,84205.44
2023-03-11T03:58:22.257Z,84215.44
2023-03-11T04:00:49.195Z,84196.66
2023-03-11T04:03:16.444Z,84178.63
2023-03-11T04:05:50.055Z,84141.88
2023-03-11T04:08:17.612Z,84167.63
2023-03-11T04:10:44.859Z,84131.94
2023-03-11T04:13:11.863Z,84148.13
2023-03-11T04:15:47.129Z,84176.56
2023-03-11T04:18:14.480Z,84185.19
2023-03-11T04:20:41.611Z,84204.16
2023-03-11T04:23:08.601Z,84200.22
2023-03-11T04:25:35.857Z,84206.09
2023-03-11T04:28:03.193Z,84213.19
2023-03-11T04:30:31.967Z,84198.16
2023-03-11T04:32:59.080Z,84232.16
2023-03-11T04:35:26.301Z,84230.56
2023-03-11T04:37:53.580Z,84202.78
2023-03-11T04:40:21.284Z,84225.19
2023-03-11T04:42:48.788Z,84179.13
2023-03-11T04:45:18.647Z,84159.72
2023-03-11T04:47:51.224Z,84197.63
2023-03-11T04:50:19.467Z,84206.28
2023-03-11T04:52:47.386Z,84202.03
2023-03-11T04:55:16.843Z,84201.78
2023-03-11T04:57:44.562Z,84204.38
2023-03-11T05:00:15.861Z,84208.25
2023-03-11T05:02:47.411Z,84203.47
2023-03-11T05:05:14.472Z,84219.88
2023-03-11T05:07:42.903Z,84202.78
2023-03-11T05:10:12.598Z,84217.97
2023-03-11T05:12:39.762Z,84179.13
2023-03-11T05:15:08.186Z,84210.59
2023-03-11T05:17:35.376Z,84201.31
2023-03-11T05:20:02.489Z,84203.13
2023-03-11T05:22:32.726Z,84210.66
2023-03-11T05:24:59.915Z,84225.34
2023-03-11T05:27:27.142Z,84180.53
2023-03-11T05:29:56.378Z,84199.13
2023-03-11T05:32:25.328Z,84223.94
2023-03-11T05:34:53.444Z,84230.69
2023-03-11T05:37:21.036Z,84191.94
2023-03-11T05:39:49.853Z,84226.94
2023-03-11T05:42:16.993Z,84185.75
2023-03-11T05:44:46.224Z,84211.22
2023-03-11T05:47:13.332Z,84228.66
2023-03-11T05:49:40.997Z,84231.25
2023-03-11T05:52:08.016Z,84152.00
2023-03-11T05:54:35.712Z,84215.13
2023-03-11T05:57:02.877Z,84180.69
2023-03-11T05:59:32.862Z,84186.31
2023-03-11T06:02:02.933Z,84229.16
2023-03-11T06:04:30.446Z,84230.47
2023-03-11T06:06:59.608Z,84226.41
2023-03-11T06:09:29.894Z,84204.63
2023-03-11T06:11:57.364Z,84224.78
2023-03-11T06:14:32.816Z,84186.31
2023-03-11T06:17:01.292Z,84216.97
2023-03-11T06:19:28.942Z,84224.28
2023-03-11T06:21:56.075Z,84198.50
2023-03-11T06:24:23.245Z,84214.84
2023-03-11T06:26:53.878Z,84206.13
2023-03-11T06:29:24.598Z,84191.38
2023-03-11T06:31:52.433Z,84153.34
2023-03-11T06:34:20.407Z,84194.63
2023-03-11T06:36:47.571Z,84206.13
2023-03-11T06:39:15.630Z,84206.63
2023-03-11T06:41:45.525Z,84163.22
2023-03-11T06:44:13.853Z,84201.28
2023-03-11T06:46:42.042Z,84195.56
2023-03-11T06:49:09.131Z,84129.03
2023-03-11T06:51:37.500Z,84198.69
2023-03-11T06:54:05.154Z,84208.72
2023-03-11T06:56:32.809Z,84200.25
2023-03-11T06:59:04.997Z,84221.72
2023-03-11T07:01:34.375Z,84176.25
2023-03-11T07:04:04.463Z,84159.81
2023-03-11T07:06:32.465Z,84205.25
2023-03-11T07:09:07.960Z,84181.56
2023-03-11T07:11:38.998Z,84191.06
2023-03-11T07:14:13.315Z,84200.13
2023-03-11T07:16:48.328Z,84176.22
2023-03-11T07:19:44.905Z,84206.00
2023-03-11T07:22:12.029Z,84170.09
2023-03-11T07:24:39.079Z,84209.22
2023-03-11T07:27:06.663Z,84175.16
2023-03-11T07:29:33.696Z,84196.66
2023-03-11T07:32:08.169Z,84176.50
2023-03-11T07:34:35.580Z,84211.25
2023-03-11T07:37:02.646Z,84193.16
2023-03-11T07:39:29.753Z,84205.63
2023-03-11T07:41:56.853Z,84180.56
2023-03-11T07:44:30.803Z,84163.75
2023-03-11T07:46:58.037Z,84185.22
2023-03-11T07:49:25.112Z,84180.97
2023-03-11T07:51:52.351Z,84170.75
2023-03-11T07:54:19.558Z,84189.34
2023-03-11T07:56:46.958Z,84158.38
2023-03-11T07:59:14.183Z,84128.44
2023-03-11T08:01:41.333Z,84177.88
2023-03-11T08:04:13.723Z,84183.13
2023-03-11T08:06:43.049Z,84188.56
2023-03-11T08:09:10.242Z,84191.06
2023-03-11T08:11:37.728Z,84191.06
2023-03-11T08:14:05.469Z,84192.81
2023-03-11T08:16:33.056Z,84144.03
2023-03-11T08:19:00.387Z,84142.09
2023-03-11T08:21:30.112Z,84076.81
2023-03-11T08:23:59.050Z,84189.56
2023-03-11T08:26:26.631Z,84138.59
2023-03-11T08:28:55.398Z,84184.41
2023-03-11T08:31:25.625Z,84165.75
2023-03-11T08:33:57.162Z,84163.00
2023-03-11T08:36:24.448Z,84141.16
2023-03-11T08:38:51.530Z,84162.94
2023-03-11T08:41:19.536Z,84178.69
2023-03-11T08:43:47.109Z,84141.56
2023-03-11T08:46:36.347Z,84131.31
2023-03-11T08:49:05.309Z,84140.47
2023-03-11T08:51:38.454Z,84177.00
2023-03-11T08:54:05.960Z,84127.16
2023-03-11T08:56:33.054Z,84179.09
2023-03-11T08:59:00.508Z,84001.75
2023-03-11T09:01:29.740Z,84142.66
2023-03-11T09:03:56.892Z,84162.09
2023-03-11T09:06:24.719Z,84147.00
2023-03-11T09:08:52.056Z,84163.59
2023-03-11T09:11:19.673Z,84142.53
2023-03-11T09:13:46.679Z,84163.03
2023-03-11T09:16:22.069Z,84159.91
2023-03-11T09:18:49.679Z,84165.13
2023-03-11T09:21:17.073Z,84160.88
2023-03-11T09:23:44.736Z,84159.22
2023-03-11T09:26:12.961Z,84152.81
2023-03-11T09:28:41.510Z,84106.97
2023-03-11T09:31:08.634Z,84133.31
2023-03-11T09:33:41.040Z,84132.03
2023-03-11T09:36:12.522Z,84099.41
2023-03-11T09:38:39.766Z,84133.38
2023-03-11T09:41:19.011Z,84139.19
2023-03-11T09:43:46.030Z,84137.91
2023-03-11T09:46:34.466Z,84143.22
2023-03-11T09:49:32.395Z,84146.34
2023-03-11T09:52:16.910Z,84144.19
2023-03-11T09:54:53.522Z,84121.19
2023-03-11T09:57:25.478Z,84148.53
2023-03-11T09:59:52.816Z,84153.06
2023-03-11T10:02:23.729Z,84127.53
2023-03-11T10:05:06.418Z,84143.97
2023-03-11T10:07:47.444Z,84112.94
2023-03-11T10:10:15.643Z,84099.63
2023-03-11T10:13:03.956Z,84099.13
2023-03-11T10:15:49.419Z,84122.63
2023-03-11T10:18:41.099Z,84133.00
2023-03-11T10:21:25.687Z,84123.59
2023-03-11T10:24:17.626Z,84117.84
2023-03-11T10:26:51.619Z,84117.75
2023-03-11T10:29:31.180Z,84111.91
2023-03-11T10:32:02.011Z,84146.06
2023-03-11T10:34:38.161Z,84150.03
2023-03-11T10:37:11.215Z,84133.16
2023-03-11T10:39:39.634Z,84133.34
2023-03-11T10:42:14.118Z,84155.84
2023-03-11T10:44:42.803Z,84154.16
2023-03-11T10:47:24.914Z,84157.00
2023-03-11T10:49:53.091Z,84160.88
2023-03-11T10:52:20.780Z,84151.38
2023-03-11T10:54:59.545Z,84153.16
2023-03-11T10:57:33.014Z,84110.78
2023-03-11T11:00:04.464Z,84133.00
2023-03-11T11:02:38.122Z,84145.59
2023-03-11T11:05:23.245Z,84148.84
2023-03-11T11:08:02.046Z,84129.84
2023-03-11T11:10:29.809Z,84146.78
2023-03-11T11:12:56.691Z,84147.94
2023-03-11T11:15:34.986Z,84143.59
2023-03-11T11:18:16.387Z,84149.38
2023-03-11T11:21:04.025Z,84145.94
2023-03-11T11:23:44.125Z,84147.94
2023-03-11T11:26:26.379Z,84095.94
2023-03-11T11:29:12.378Z,84143.31
2023-03-11T11:31:45.231Z,84144.41
2023-03-11T11:34:32.547Z,84140.97
2023-03-11T11:37:05.544Z,84113.91
2023-03-11T11:39:51.933Z,84137.63
2023-03-11T11:42:20.649Z,84112.31
2023-03-11T11:44:52.351Z,84121.28
2023-03-11T11:47:28.518Z,84131.00
2023-03-11T11:50:00.270Z,84131.66
2023-03-11T11:52:40.623Z,84105.50
2023-03-11T11:55:20.136Z,84131.66
2023-03-11T11:57:47.788Z,84140.06
2023-03-11T12:00:20.933Z,84140.56
2023-03-11T12:03:06.565Z,84141.16
2023-03-11T12:05:46.441Z,84116.31
2023-03-11T12:08:43.393Z,84144.00
2023-03-11T12:11:39.334Z,84145.84
2023-03-11T12:14:36.430Z,84146.75
2023-03-11T12:17:05.212Z,84146.06
2023-03-11T12:19:47.912Z,84158.34
2023-03-11T12:22:26.796Z,84152.59
2023-03-11T12:25:12.078Z,84149.28
2023-03-11T12:27:54.835Z,84141.72
2023-03-11T12:30:33.492Z,84116.38
2023-03-11T12:33:17.600Z,84124.09
2023-03-11T12:35:56.153Z,84128.00
2023-03-11T12:38:38.881Z,84109.75
2023-03-11T12:41:06.069Z,84119.69
2023-03-11T12:43:35.835Z,84120.22
2023-03-11T12:46:10.694Z,84120.91
2023-03-11T12:48:50.658Z,84116.03
2023-03-11T12:51:26.461Z,84118.88
2023-03-11T12:53:55.206Z,84116.53
2023-03-11T12:56:31.613Z,84090.00
2023-03-11T12:59:24.911Z,84067.59
2023-03-11T13:01:54.935Z,84115.06
2023-03-11T13:04:36.407Z,84112.69
2023-03-11T13:07:40.415Z,84118.38
2023-03-11T13:10:07.386Z,84136.56
2023-03-11T13:12:42.065Z,84070.88
2023-03-11T13:15:18.433Z,84148.69
2023-03-11T13:18:11.281Z,84143.53
2023-03-11T13:20:44.553Z,84153.06
2023-03-11T13:23:14.546Z,84154.28
2023-03-11T13:25:50.378Z,84172.06
2023-03-11T13:28:23.131Z,84158.50
2023-03-11T13:31:04.433Z,84170.50
2023-03-11T13:33:54.672Z,84176.78
2023-03-11T13:36:30.685Z,84164.50
2023-03-11T13:39:00.631Z,84177.09
2023-03-11T13:41:35.022Z,84140.72
2023-03-11T13:44:27.933Z,84146.44
2023-03-11T13:47:04.501Z,84146.94
2023-03-11T13:49:35.834Z,84178.66
2023-03-11T13:52:07.368Z,84187.13
2023-03-11T13:54:40.556Z,84191.91
2023-03-11T13:57:27.506Z,84188.22
2023-03-11T13:59:56.536Z,84172.09
2023-03-11T14:02:28.028Z,84152.88
2023-03-11T14:04:59.182Z,84165.56
2023-03-11T14:07:34.481Z,84176.22
2023-03-11T14:10:26.236Z,84159.63
2023-03-11T14:13:25.468Z,84137.16
2023-03-11T14:15:58.437Z,84174.91
2023-03-11T14:18:27.397Z,84150.44
2023-03-11T14:21:05.432Z,84176.09
2023-03-11T14:23:41.477Z,84169.19
2023-03-11T14:26:34.234Z,84170.81
2023-03-11T14:29:16.613Z,84140.59
2023-03-11T14:31:52.202Z,84144.75
2023-03-11T14:34:19.132Z,84172.56
2023-03-11T14:36:52.537Z,84182.78
2023-03-11T14:39:28.704Z,84191.53
2023-03-11T14:42:06.817Z,84173.53
2023-03-11T14:44:42.560Z,84196.19
2023-03-11T14:47:23.106Z,84205.19
2023-03-11T14:49:51.402Z,84176.78
2023-03-11T14:52:32.775Z,84179.09
2023-03-11T14:55:00.935Z,84179.69
2023-03-11T14:57:36.910Z,84220.31
2023-03-11T15:00:08.501Z,84211.22
2023-03-11T15:03:12.817Z,84120.22
2023-03-11T15:05:45.789Z,84226.00
2023-03-11T15:08:13.177Z,84190.94
2023-03-11T15:10:40.176Z,84192.78
2023-03-11T15:13:13.943Z,84235.06
2023-03-11T15:15:41.469Z,84232.22
2023-03-11T15:18:28.979Z,84229.75
2023-03-11T15:21:18.083Z,84231.63
2023-03-11T15:23:48.145Z,84188.03
2023-03-11T15:26:30.178Z,84232.56
2023-03-11T15:29:00.335Z,84218.38
2023-03-11T15:31:38.109Z,84210.13
2023-03-11T15:34:32.381Z,84235.41
2023-03-11T15:37:03.751Z,84237.50
2023-03-11T15:39:30.708Z,84240.03
2023-03-11T15:42:06.619Z,84237.84
2023-03-11T15:44:41.189Z,84240.75
2023-03-11T15:47:28.594Z,84215.16
2023-03-11T15:49:55.629Z,84243.97
2023-03-11T15:52:22.608Z,84218.13
2023-03-11T15:54:55.740Z,84266.47
2023-03-11T15:57:27.507Z,84209.91
2023-03-11T15:59:56.874Z,84270.38
2023-03-11T16:02:26.464Z,84263.84
2023-03-11T16:04:55.087Z,84268.69
2023-03-11T16:07:38.096Z,84243.84
2023-03-11T16:10:08.050Z,84235.16
2023-03-11T16:12:35.198Z,84280.25
2023-03-11T16:15:02.619Z,84258.66
2023-03-11T16:17:42.950Z,84286.34
2023-03-11T16:20:14.252Z,84267.28
2023-03-11T16:22:41.366Z,84264.44
2023-03-11T16:25:18.244Z,84260.41
2023-03-11T16:27:45.248Z,84241.66
2023-03-11T16:30:16.137Z,84257.75
2023-03-11T16:32:43.738Z,84301.19
2023-03-11T16:35:11.964Z,84283.31
2023-03-11T16:37:49.322Z,84310.06
2023-03-11T16:40:19.801Z,84303.88
2023-03-11T16:42:47.536Z,84318.53
2023-03-11T16:45:16.755Z,84325.69
2023-03-11T16:47:44.065Z,84316.84
2023-03-11T16:50:12.437Z,84297.41
2023-03-11T16:52:39.630Z,84326.66
2023-03-11T16:55:07.275Z,84288.84
2023-03-11T16:57:34.415Z,84304.19
2023-03-11T17:00:07.042Z,84336.34
2023-03-11T17:02:34.189Z,84331.09
2023-03-11T17:05:01.438Z,84319.13
2023-03-11T17:07:28.715Z,84327.06
2023-03-11T17:09:55.932Z,84332.38
2023-03-11T17:12:23.269Z,84336.38
2023-03-11T17:14:50.339Z,84325.19
2023-03-11T17:17:17.412Z,84318.06
2023-03-11T17:19:44.806Z,84324.84
2023-03-11T17:22:12.782Z,84326.81
2023-03-11T17:24:40.094Z,84359.69
2023-03-11T17:27:07.135Z,84325.03
2023-03-11T17:29:34.392Z,84371.88
2023-03-11T17:32:06.193Z,84313.88
2023-03-11T17:34:33.289Z,84378.56
2023-03-11T17:37:00.357Z,84372.38
2023-03-11T17:39:27.482Z,84383.53
2023-03-11T17:41:54.308Z,84350.78
2023-03-11T17:44:21.429Z,84385.13
2023-03-11T17:46:48.458Z,84384.19
2023-03-11T17:49:15.557Z,84380.84
2023-03-11T17:51:42.830Z,84345.78
2023-03-11T17:54:10.158Z,84360.00
2023-03-11T17:56:37.163Z,84378.56
2023-03-11T17:59:04.292Z,84390.28
2023-03-11T18:01:34.813Z,84391.75
2023-03-11T18:04:03.036Z,84380.63
2023-03-11T18:06:30.681Z,84355.84
2023-03-11T18:08:57.804Z,84394.53
2023-03-11T18:11:28.094Z,84417.09
2023-03-11T18:13:55.544Z,84410.66
2023-03-11T18:16:25.942Z,84414.78
2023-03-11T18:18:53.011Z,84420.41
2023-03-11T18:21:22.717Z,84382.72
2023-03-11T18:23:49.801Z,84404.44
2023-03-11T18:26:18.612Z,84395.06
2023-03-11T18:28:46.016Z,84405.72
2023-03-11T18:31:23.065Z,84421.84
2023-03-11T18:34:02.671Z,84423.19
2023-03-11T18:36:32.835Z,84406.25
2023-03-11T18:39:01.193Z,84408.44
2023-03-11T18:41:32.458Z,84417.47
2023-03-11T18:44:00.128Z,84385.47
2023-03-11T18:46:31.684Z,84390.94
2023-03-11T18:49:00.146Z,84437.91
2023-03-11T18:51:28.977Z,84415.91
2023-03-11T18:53:56.096Z,84448.91
2023-03-11T18:56:23.254Z,84439.69
2023-03-11T18:58:50.360Z,84422.09
2023-03-11T19:01:21.664Z,84463.72
2023-03-11T19:03:53.998Z,84450.31
2023-03-11T19:06:22.531Z,84438.28
2023-03-11T19:08:50.012Z,84464.13
2023-03-11T19:11:20.208Z,84439.94
2023-03-11T19:13:48.124Z,84442.66
2023-03-11T19:16:18.349Z,84485.97
2023-03-11T19:18:46.162Z,84484.91
2023-03-11T19:21:15.283Z,84486.44
2023-03-11T19:23:42.947Z,84494.53
2023-03-11T19:26:10.272Z,84509.69
2023-03-11T19:28:37.274Z,84471.94
2023-03-11T19:31:05.433Z,84504.13
2023-03-11T19:33:32.725Z,84483.19
2023-03-11T19:36:02.405Z,84490.72
2023-03-11T19:38:30.181Z,84517.75
2023-03-11T19:41:06.851Z,84496.31
2023-03-11T19:43:38.376Z,84492.13
2023-03-11T19:46:06.498Z,84531.03
2023-03-11T19:48:34.000Z,84533.69
2023-03-11T19:51:02.670Z,84528.66
2023-03-11T19:53:29.713Z,84531.44
2023-03-11T19:55:58.014Z,84532.97
2023-03-11T19:58:30.104Z,84531.78
2023-03-11T20:00:58.885Z,84514.16
2023-03-11T20:03:26.842Z,84538.34
2023-03-11T20:05:56.868Z,84546.69
2023-03-11T20:08:25.515Z,84540.72
2023-03-11T20:10:53.767Z,84538.84
2023-03-11T20:13:22.115Z,84544.34
2023-03-11T20:15:49.906Z,84557.88
2023-03-11T20:18:18.246Z,84509.59
2023-03-11T20:20:45.687Z,84514.06
2023-03-11T20:23:13.284Z,84477.19
2023-03-11T20:25:41.483Z,84542.09
2023-03-11T20:28:09.449Z,84468.63
2023-03-11T20:30:37.739Z,84531.56
2023-03-11T20:33:05.153Z,84522.38
2023-03-11T20:35:32.307Z,84431.44
2023-03-11T20:38:00.244Z,84508.25
2023-03-11T20:40:27.448Z,84562.94
2023-03-11T20:42:54.469Z,84533.41
2023-03-11T20:45:22.295Z,84553.56
2023-03-11T20:47:50.750Z,84561.63
2023-03-11T20:50:18.425Z,84572.63
2023-03-11T20:52:45.551Z,84567.16
2023-03-11T20:55:12.998Z,84503.69
2023-03-11T20:57:40.424Z,84568.19
2023-03-11T21:00:11.793Z,84551.56
2023-03-11T21:02:41.200Z,84558.38
2023-03-11T21:05:09.945Z,84551.41
2023-03-11T21:07:37.888Z,84546.56
2023-03-11T21:10:07.066Z,84577.72
2023-03-11T21:12:34.153Z,84589.34
2023-03-11T21:15:01.492Z,84568.31
2023-03-11T21:17:28.470Z,84577.38
2023-03-11T21:19:55.913Z,84530.22
2023-03-11T21:22:23.030Z,84578.78
2023-03-11T21:24:54.181Z,84522.44
2023-03-11T21:27:26.764Z,84559.84
2023-03-11T21:29:58.093Z,84588.25
2023-03-11T21:32:28.083Z,84586.31
2023-03-11T21:34:57.547Z,84600.75
2023-03-11T21:37:26.061Z,84598.69
2023-03-11T21:39:53.298Z,84486.44
2023-03-11T21:42:21.125Z,84518.84
2023-03-11T21:44:48.548Z,84547.88
2023-03-11T21:47:15.803Z,84578.63
2023-03-11T21:49:43.026Z,84559.50
2023-03-11T21:52:10.083Z,84593.22
2023-03-11T21:54:37.226Z,84581.91
2023-03-11T21:57:04.476Z,84605.72
2023-03-11T21:59:31.695Z,84581.84
2023-03-11T22:02:03.307Z,84595.97
2023-03-11T22:04:32.025Z,84516.34
2023-03-11T22:06:59.400Z,84596.50
2023-03-11T22:09:26.716Z,84610.13
2023-03-11T22:11:56.392Z,84606.28
2023-03-11T22:14:24.305Z,84592.72
2023-03-11T22:16:52.150Z,84583.19
2023-03-11T22:19:19.799Z,84602.13
2023-03-11T22:21:48.634Z,84606.91
2023-03-11T22:24:16.030Z,84613.06
2023-03-11T22:26:45.252Z,84573.72
2023-03-11T22:29:13.622Z,84603.38
2023-03-11T22:31:41.747Z,84578.44
2023-03-11T22:34:08.672Z,84607.44
2023-03-11T22:36:35.793Z,84599.56
2023-03-11T22:39:04.525Z,84603.66
2023-03-11T22:41:32.362Z,84605.03
2023-03-11T22:43:59.465Z,84593.25
2023-03-11T22:46:26.960Z,84608.78
2023-03-11T22:48:53.984Z,84619.13
2023-03-11T22:51:21.381Z,84613.88
2023-03-11T22:53:48.763Z,84621.25
2023-03-11T22:56:17.951Z,84585.59
2023-03-11T22:58:45.529Z,84624.75
2023-03-11T23:01:13.174Z,84624.81
2023-03-11T23:03:46.616Z,84621.91
2023-03-11T23:06:16.432Z,84628.25
2023-03-11T23:08:43.872Z,84599.09
2023-03-11T23:11:13.370Z,84598.53
2023-03-11T23:13:41.679Z,84612.94
2023-03-11T23:16:15.656Z,84604.94
2023-03-11T23:18:44.752Z,84629.47
2023-03-11T23:21:15.935Z,84655.38
2023-03-11T23:23:42.938Z,84660.56
2023-03-11T23:26:11.849Z,84656.31
2023-03-11T23:28:41.343Z,84669.56
2023-03-11T23:31:10.052Z,84641.09
2023-03-11T23:33:37.711Z,84667.69
2023-03-11T23:36:08.092Z,84662.91
2023-03-11T23:38:35.850Z,84670.31
2023-03-11T23:41:10.005Z,84635.97
2023-03-11T23:43:39.334Z,84672.22
2023-03-11T23:46:07.053Z,84679.06
2023-03-11T23:48:34.853Z,84625.50
2023-03-11T23:51:01.956Z,84635.06
2023-03-11T23:53:29.102Z,84670.81
2023-03-11T23:55:56.101Z,84668.03
2023-03-11T23:58:23.368Z,84670.91
